Time;durP1;ratioP1;P1;durP2;ratioP2;P2;SDS_P1;SDS_P2;PMS_P1;PMS_P2;Temp;Humidity;BMP_temperature;BMP_pressure;BME280_temperature;BME280_humidity;BME280_pressure;Samples;Min_cycle;Max_cycle;Signal;HPM_P1;HPM_P2
2022/10/20 00:01:15;;;;;;;9.02;4.35;;;18.40;99.90;;;;;;5073498;28;20040;-77
2022/10/20 00:03:42;;;;;;;6.25;4.05;;;18.50;99.90;;;;;;5073604;28;20169;-76
2022/10/20 00:06:09;;;;;;;6.30;3.63;;;18.50;99.90;;;;;;5073542;28;20028;-78
2022/10/20 00:08:38;;;;;;;7.72;4.40;;;18.50;99.90;;;;;;5071814;28;20138;-77
2022/10/20 00:11:04;;;;;;;7.10;4.18;;;18.50;99.90;;;;;;5073393;28;20052;-77
2022/10/20 00:13:31;;;;;;;5.75;3.85;;;18.60;99.90;;;;;;5073326;28;20020;-77
2022/10/20 00:15:58;;;;;;;8.00;4.05;;;18.60;99.90;;;;;;5072952;28;20045;-75
2022/10/20 00:18:25;;;;;;;7.00;3.90;;;18.60;99.90;;;;;;5073160;28;20025;-77
2022/10/20 00:20:52;;;;;;;6.18;3.80;;;18.60;99.90;;;;;;5072795;28;20349;-77
2022/10/20 00:23:18;;;;;;;6.55;4.45;;;18.70;99.90;;;;;;5073207;28;20032;-77
2022/10/20 00:25:44;;;;;;;5.88;4.00;;;18.60;99.90;;;;;;5073155;28;20029;-77
2022/10/20 00:28:11;;;;;;;7.00;4.43;;;18.60;99.90;;;;;;5072873;28;20477;-77
2022/10/20 00:30:37;;;;;;;7.43;3.95;;;18.60;99.90;;;;;;5072781;28;20492;-77
2022/10/20 00:33:04;;;;;;;7.72;4.28;;;18.50;99.90;;;;;;5072882;28;20017;-77
2022/10/20 00:35:33;;;;;;;8.60;4.72;;;18.50;99.90;;;;;;5072985;28;20104;-77
2022/10/20 00:37:59;;;;;;;8.23;4.25;;;18.40;99.90;;;;;;5072678;28;20020;-77
2022/10/20 00:40:25;;;;;;;7.57;4.28;;;18.30;99.90;;;;;;5072573;28;20033;-76
2022/10/20 00:42:51;;;;;;;7.90;4.25;;;18.30;99.90;;;;;;5072790;28;20081;-76
2022/10/20 00:45:21;;;;;;;7.57;4.25;;;18.30;99.90;;;;;;5073014;28;20144;-77
2022/10/20 00:47:51;;;;;;;6.45;4.18;;;18.30;99.90;;;;;;5072784;28;20043;-77
2022/10/20 00:50:25;;;;;;;7.22;4.38;;;18.30;99.90;;;;;;5073011;28;20037;-77
2022/10/20 00:52:53;;;;;;;6.18;4.50;;;18.30;99.90;;;;;;5072021;28;20017;-77
2022/10/20 00:55:24;;;;;;;7.30;3.83;;;18.30;99.90;;;;;;5070859;28;20399;-76
2022/10/20 00:57:53;;;;;;;6.65;3.75;;;18.40;99.90;;;;;;5072547;28;20032;-77
2022/10/20 01:00:20;;;;;;;7.63;3.63;;;18.40;99.90;;;;;;5072381;28;20028;-77
2022/10/20 01:02:50;;;;;;;8.75;3.67;;;18.40;99.90;;;;;;5072542;28;20030;-77
2022/10/20 01:05:17;;;;;;;7.47;3.83;;;18.40;99.90;;;;;;5072530;28;20087;-76
2022/10/20 01:07:43;;;;;;;7.88;3.83;;;18.50;99.90;;;;;;5072134;28;20020;-78
2022/10/20 01:10:10;;;;;;;6.22;3.95;;;18.50;99.90;;;;;;5070650;28;20115;-78
2022/10/20 01:13:08;;;;;;;6.90;4.03;;;18.50;99.90;;;;;;5072470;28;20044;-77
2022/10/20 01:16:04;;;;;;;7.45;4.07;;;18.50;99.90;;;;;;5071168;28;20399;-77
2022/10/20 01:18:48;;;;;;;7.78;4.25;;;18.40;99.90;;;;;;5072414;28;20401;-77
2022/10/20 01:21:33;;;;;;;7.70;3.90;;;18.40;99.90;;;;;;5070211;28;20504;-77
2022/10/20 01:24:09;;;;;;;8.25;3.90;;;18.40;99.90;;;;;;5072137;28;20036;-77
2022/10/20 01:27:18;;;;;;;6.45;4.30;;;18.30;99.90;;;;;;5071982;28;20028;-77
2022/10/20 01:30:00;;;;;;;6.72;3.80;;;18.30;99.90;;;;;;4990430;28;20479;-77
2022/10/20 01:32:55;;;;;;;8.13;3.88;;;18.30;99.90;;;;;;4973892;28;20130;-78
2022/10/20 01:35:53;;;;;;;4.95;3.42;;;18.40;99.90;;;;;;4990253;28;20041;-77
2022/10/20 01:38:41;;;;;;;5.60;3.70;;;18.50;99.90;;;;;;4990197;28;20038;-77
2022/10/20 01:41:36;;;;;;;7.10;4.00;;;18.40;99.90;;;;;;4990137;28;20094;-77
2022/10/20 01:44:07;;;;;;;7.25;3.22;;;18.40;99.90;;;;;;4985089;28;20038;-77
2022/10/20 01:46:36;;;;;;;6.20;3.88;;;18.40;99.90;;;;;;4989953;28;20042;-78
2022/10/20 01:49:03;;;;;;;6.63;3.78;;;18.40;99.90;;;;;;4990108;28;20026;-77
2022/10/20 01:51:31;;;;;;;7.40;3.83;;;18.30;99.90;;;;;;4989954;28;20526;-78
2022/10/20 01:53:58;;;;;;;8.40;3.70;;;18.30;99.90;;;;;;4989673;28;20135;-75
2022/10/20 01:56:37;;;;;;;10.35;3.92;;;18.30;99.90;;;;;;4973291;28;20034;-77
2022/10/20 01:59:32;;;;;;;5.50;3.65;;;18.30;99.90;;;;;;4973186;28;20149;-77
2022/10/20 02:01:58;;;;;;;6.63;3.90;;;18.30;99.90;;;;;;4989704;28;20120;-77
2022/10/20 02:04:38;;;;;;;6.30;3.67;;;18.30;99.90;;;;;;5056904;28;20075;-78
2022/10/20 02:07:17;;;;;;;5.80;3.50;;;18.20;99.90;;;;;;5069962;28;20388;-77
2022/10/20 02:09:48;;;;;;;5.82;3.55;;;18.20;99.90;;;;;;5071425;28;20055;-77
2022/10/20 02:12:28;;;;;;;5.65;3.88;;;18.20;99.90;;;;;;5069569;28;20025;-78
2022/10/20 02:14:55;;;;;;;9.48;4.00;;;18.10;99.90;;;;;;5071133;28;20076;-77
2022/10/20 02:17:21;;;;;;;5.45;4.10;;;18.10;99.90;;;;;;5068380;28;20529;-77
2022/10/20 02:19:51;;;;;;;6.95;4.10;;;18.10;99.90;;;;;;5070349;28;20111;-77
2022/10/20 02:22:19;;;;;;;6.10;3.67;;;18.10;99.90;;;;;;5070301;28;20067;-77
2022/10/20 02:24:46;;;;;;;6.18;3.53;;;18.10;99.90;;;;;;5069154;28;20031;-76
2022/10/20 02:27:23;;;;;;;9.80;4.20;;;18.10;99.90;;;;;;5069414;28;20425;-77
2022/10/20 02:30:15;;;;;;;5.90;3.88;;;18.00;99.90;;;;;;5069062;28;20020;-77
2022/10/20 02:32:43;;;;;;;6.18;3.80;;;18.10;99.90;;;;;;5070624;28;20370;-77
2022/10/20 02:35:13;;;;;;;7.70;3.55;;;18.10;99.90;;;;;;5069217;28;20029;-77
2022/10/20 02:37:40;;;;;;;5.90;3.92;;;18.00;99.90;;;;;;5070498;28;20116;-76
2022/10/20 02:40:12;;;;;;;;;;;18.00;99.90;;;;;;5070336;28;20080;-77
2022/10/20 02:42:41;;;;;;;9.27;4.00;;;18.00;99.90;;;;;;5070110;28;20357;-77
2022/10/20 02:45:09;;;;;;;6.97;4.13;;;18.00;99.90;;;;;;5070556;28;20024;-78
2022/10/20 02:47:35;;;;;;;7.38;4.10;;;17.90;99.90;;;;;;5071031;28;20056;-78
2022/10/20 02:50:01;;;;;;;5.88;3.80;;;17.90;99.90;;;;;;5070255;28;20530;-77
2022/10/20 02:52:29;;;;;;;6.20;4.00;;;17.90;99.90;;;;;;5070161;28;20074;-77
2022/10/20 02:54:56;;;;;;;7.57;4.20;;;17.80;99.90;;;;;;5070213;28;20056;-77
2022/10/20 02:57:24;;;;;;;8.18;3.90;;;17.80;99.90;;;;;;5070582;28;20025;-77
2022/10/20 02:59:50;;;;;;;8.15;3.90;;;17.90;99.90;;;;;;5071713;28;20028;-77
2022/10/20 03:02:17;;;;;;;6.25;3.88;;;17.80;99.90;;;;;;5071242;28;20503;-78
2022/10/20 03:04:45;;;;;;;6.57;3.72;;;17.80;99.90;;;;;;5071090;28;20472;-77
2022/10/20 03:07:13;;;;;;;6.22;3.88;;;17.80;99.90;;;;;;5071421;28;20380;-82
2022/10/20 03:09:43;;;;;;;5.30;3.60;;;17.90;99.90;;;;;;5071106;28;20021;-77
2022/10/20 03:12:09;;;;;;;4.25;3.20;;;17.90;99.90;;;;;;5071557;28;20448;-77
2022/10/20 03:14:38;;;;;;;5.82;3.63;;;18.10;99.90;;;;;;5071798;28;20059;-77
2022/10/20 03:17:08;;;;;;;5.60;3.45;;;18.20;99.90;;;;;;5071606;28;20056;-77
2022/10/20 03:19:34;;;;;;;6.30;3.40;;;18.20;99.90;;;;;;5071446;28;20029;-77
2022/10/20 03:22:01;;;;;;;6.18;3.25;;;18.30;99.90;;;;;;5071065;28;20484;-77
2022/10/20 03:24:27;;;;;;;;;;;18.30;99.90;;;;;;5070387;28;20496;-76
2022/10/20 03:26:53;;;;;;;5.63;3.35;;;18.30;99.90;;;;;;5071103;28;19904;-77
2022/10/20 03:29:19;;;;;;;5.10;3.47;;;18.40;99.90;;;;;;5071455;28;20028;-78
2022/10/20 03:31:46;;;;;;;5.43;3.00;;;18.40;99.90;;;;;;5070830;28;20039;-77
2022/10/20 03:34:12;;;;;;;4.82;3.13;;;18.50;99.90;;;;;;5071460;28;20025;-77
2022/10/20 03:36:38;;;;;;;5.53;3.05;;;18.50;99.90;;;;;;5071294;28;20083;-76
2022/10/20 03:39:04;;;;;;;6.13;3.40;;;18.50;99.90;;;;;;5071494;28;20024;-77
2022/10/20 03:41:31;;;;;;;5.38;3.40;;;18.50;99.90;;;;;;5071953;28;20040;-77
2022/10/20 03:43:58;;;;;;;9.82;3.65;;;18.50;99.90;;;;;;5071478;28;20047;-77
2022/10/20 03:46:24;;;;;;;;;;;18.50;99.90;;;;;;5072177;28;20024;-77
2022/10/20 03:48:50;;;;;;;6.15;3.17;;;18.50;99.90;;;;;;5071430;28;19905;-77
2022/10/20 03:51:17;;;;;;;5.97;2.80;;;18.40;99.90;;;;;;5070852;28;20376;-77
2022/10/20 03:53:43;;;;;;;7.45;3.38;;;18.40;99.90;;;;;;5070024;28;20263;-76
2022/10/20 03:56:11;;;;;;;7.20;3.50;;;18.40;99.90;;;;;;5071582;28;20111;-77
2022/10/20 03:58:38;;;;;;;6.15;3.20;;;18.40;99.90;;;;;;5071539;28;20028;-77
2022/10/20 04:01:06;;;;;;;7.43;3.50;;;18.40;99.90;;;;;;5071361;28;20035;-75
2022/10/20 04:03:32;;;;;;;12.15;3.67;;;18.40;99.90;;;;;;5071186;28;20107;-77
2022/10/20 04:05:59;;;;;;;5.97;3.78;;;18.30;99.90;;;;;;5071035;28;20024;-77
2022/10/20 04:08:25;;;;;;;5.32;3.22;;;18.30;99.90;;;;;;5071361;28;20020;-77
2022/10/20 04:10:51;;;;;;;7.75;3.67;;;18.30;99.90;;;;;;5070237;28;20071;-77
2022/10/20 04:13:17;;;;;;;5.72;3.60;;;18.30;99.90;;;;;;5071379;28;20111;-76
2022/10/20 04:15:43;;;;;;;7.05;3.65;;;18.30;99.90;;;;;;5069879;28;20469;-76
2022/10/20 04:18:15;;;;;;;6.80;3.53;;;18.20;99.90;;;;;;5072204;28;20485;-77
2022/10/20 04:20:44;;;;;;;6.57;3.50;;;18.20;99.90;;;;;;5060407;28;20049;-76
2022/10/20 04:23:11;;;;;;;8.77;3.78;;;18.10;99.90;;;;;;5050606;28;20175;-77
2022/10/20 04:25:44;;;;;;;5.82;3.67;;;18.10;99.90;;;;;;5064173;28;20132;-77
2022/10/20 04:28:13;;;;;;;6.47;3.58;;;18.00;99.90;;;;;;5071746;28;20119;-77
2022/10/20 04:30:39;;;;;;;6.65;3.50;;;17.90;99.90;;;;;;5074428;28;20144;-77
2022/10/20 04:33:06;;;;;;;8.15;3.63;;;17.90;99.90;;;;;;5075642;28;20346;-77
2022/10/20 04:35:33;;;;;;;8.35;3.90;;;17.90;99.90;;;;;;5075957;28;20039;-76
2022/10/20 04:38:05;;;;;;;5.82;3.58;;;17.80;99.90;;;;;;5074038;28;20349;-77
2022/10/20 04:40:33;;;;;;;8.57;4.07;;;17.80;99.90;;;;;;5075535;28;20135;-77
2022/10/20 04:43:00;;;;;;;5.72;3.35;;;17.90;99.90;;;;;;5074794;28;20025;-77
2022/10/20 04:45:26;;;;;;;;;;;17.80;99.90;;;;;;5073773;28;20097;-77
2022/10/20 04:47:52;;;;;;;7.47;3.90;;;17.80;99.90;;;;;;5075019;28;19912;-77
2022/10/20 04:50:20;;;;;;;7.45;4.10;;;17.80;99.90;;;;;;5075829;28;20024;-76
2022/10/20 04:52:46;;;;;;;7.00;4.10;;;17.70;99.90;;;;;;5065849;28;20052;-77
2022/10/20 04:55:13;;;;;;;7.10;3.63;;;17.80;99.90;;;;;;5053971;28;20056;-76
2022/10/20 04:57:40;;;;;;;7.38;4.10;;;17.80;99.90;;;;;;5053776;28;20267;-77
2022/10/20 05:00:06;;;;;;;5.55;3.90;;;17.80;99.90;;;;;;5055105;28;20018;-77
2022/10/20 05:02:32;;;;;;;5.80;3.88;;;17.70;99.90;;;;;;5073200;28;20033;-76
2022/10/20 05:05:00;;;;;;;5.57;3.92;;;17.70;99.90;;;;;;5073883;28;20031;-75
2022/10/20 05:07:29;;;;;;;5.97;3.90;;;17.70;99.90;;;;;;5073066;28;20036;-75
2022/10/20 05:09:55;;;;;;;8.07;3.90;;;17.70;99.90;;;;;;5073793;28;20052;-77
2022/10/20 05:12:21;;;;;;;5.97;3.80;;;17.70;99.90;;;;;;5074502;28;20031;-77
2022/10/20 05:14:48;;;;;;;10.67;4.47;;;17.70;99.90;;;;;;5074379;28;20028;-77
2022/10/20 05:17:17;;;;;;;6.15;3.60;;;17.60;99.90;;;;;;5074539;28;20286;-76
2022/10/20 05:19:45;;;;;;;7.22;3.97;;;17.60;99.90;;;;;;5074436;28;20032;-77
2022/10/20 05:22:11;;;;;;;7.30;4.03;;;17.60;99.90;;;;;;5074090;28;20051;-76
2022/10/20 05:24:38;;;;;;;;;;;17.60;99.90;;;;;;5074601;28;20185;-76
2022/10/20 05:27:04;;;;;;;8.70;4.15;;;17.60;99.90;;;;;;5072724;28;19911;-76
2022/10/20 05:29:30;;;;;;;9.63;4.38;;;17.60;99.90;;;;;;5074347;28;20099;-73
2022/10/20 05:31:57;;;;;;;9.07;4.50;;;17.60;99.90;;;;;;5073311;28;20024;-76
2022/10/20 05:34:23;;;;;;;7.05;3.78;;;17.70;99.90;;;;;;5072016;28;20032;-76
2022/10/20 05:36:52;;;;;;;10.18;4.38;;;17.70;99.90;;;;;;5073805;28;20436;-77
2022/10/20 05:39:20;;;;;;;10.18;4.22;;;17.70;99.90;;;;;;5073548;28;20036;-76
2022/10/20 05:41:46;;;;;;;6.38;4.07;;;17.70;99.90;;;;;;5073984;28;20120;-77
2022/10/20 05:44:13;;;;;;;7.43;4.38;;;17.70;99.90;;;;;;5073199;28;20115;-76
2022/10/20 05:46:41;;;;;;;9.13;4.47;;;17.80;99.90;;;;;;5072945;28;20032;-75
2022/10/20 05:49:14;;;;;;;11.60;3.92;;;17.90;99.90;;;;;;5072783;28;20033;-76
2022/10/20 05:51:42;;;;;;;8.15;3.85;;;18.40;99.90;;;;;;5073642;28;20056;-76
2022/10/20 05:54:11;;;;;;;6.00;3.70;;;18.90;99.90;;;;;;5072473;28;20032;-75
2022/10/20 05:56:37;;;;;;;6.82;3.33;;;19.30;99.90;;;;;;5070651;28;20059;-79
2022/10/20 05:59:04;;;;;;;6.38;3.80;;;19.50;99.90;;;;;;5070617;28;20056;-76
2022/10/20 06:01:46;;;;;;;6.63;3.45;;;19.70;99.90;;;;;;5072125;28;20046;-76
2022/10/20 06:04:14;;;;;;;7.18;3.40;;;20.00;99.90;;;;;;5072598;28;20459;-74
2022/10/20 06:06:40;;;;;;;7.22;3.33;;;20.30;99.90;;;;;;5072201;28;20035;-76
2022/10/20 06:09:08;;;;;;;5.93;3.35;;;20.50;99.90;;;;;;5072339;28;20032;-77
2022/10/20 06:11:35;;;;;;;5.43;2.88;;;20.80;99.90;;;;;;5072549;28;20025;-76
2022/10/20 06:14:02;;;;;;;5.90;3.38;;;21.10;99.90;;;;;;5072469;28;20032;-75
2022/10/20 06:16:28;;;;;;;;;;;21.10;99.90;;;;;;5072770;28;20089;-76
2022/10/20 06:18:56;;;;;;;4.80;2.90;;;21.20;99.90;;;;;;5072571;28;19912;-75
2022/10/20 06:21:25;;;;;;;8.10;3.22;;;21.60;99.90;;;;;;5072271;28;20080;-75
2022/10/20 06:23:52;;;;;;;7.20;3.08;;;21.80;99.90;;;;;;5072532;28;20017;-74
2022/10/20 06:26:19;;;;;;;;;;;22.20;99.90;;;;;;5073092;28;20117;-77
2022/10/20 06:28:48;;;;;;;6.82;3.13;;;22.60;99.90;;;;;;5072242;28;20368;-71
2022/10/20 06:31:23;;;;;;;8.48;3.20;;;22.90;99.90;;;;;;5072234;28;20099;-78
2022/10/20 06:33:50;;;;;;;6.55;3.20;;;23.20;99.90;;;;;;5072442;28;20441;-80
2022/10/20 06:36:17;;;;;;;7.72;2.97;;;23.50;99.90;;;;;;5071631;28;20020;-73
2022/10/20 06:38:43;;;;;;;5.40;2.90;;;23.90;99.90;;;;;;5072498;28;20461;-76
2022/10/20 06:41:15;;;;;;;7.07;2.75;;;23.80;99.90;;;;;;5072282;28;20111;-76
2022/10/20 06:43:43;;;;;;;6.22;3.10;;;24.20;99.90;;;;;;5072315;28;20031;-71
2022/10/20 06:46:15;;;;;;;5.63;3.10;;;24.50;99.90;;;;;;5072485;28;20048;-76
2022/10/20 06:48:41;;;;;;;6.78;3.15;;;24.40;99.90;;;;;;5072385;28;20047;-77
2022/10/20 06:51:11;;;;;;;6.15;2.80;;;24.10;99.90;;;;;;5071950;28;20048;-77
2022/10/20 06:53:38;;;;;;;6.82;2.75;;;24.20;99.90;;;;;;5072508;28;20528;-78
2022/10/20 06:56:08;;;;;;;4.60;2.90;;;24.80;99.90;;;;;;5071079;28;20052;-79
2022/10/20 06:58:36;;;;;;;6.20;3.13;;;25.40;99.90;;;;;;5070815;28;20431;-79
2022/10/20 07:01:05;;;;;;;9.20;3.00;;;25.10;99.90;;;;;;5070472;28;20020;-78
2022/10/20 07:03:32;;;;;;;4.68;2.80;;;25.10;99.90;;;;;;5070582;28;20028;-75
2022/10/20 07:05:59;;;;;;;6.40;2.92;;;25.50;99.90;;;;;;5072240;28;20020;-69
2022/10/20 07:08:29;;;;;;;5.03;2.83;;;26.00;99.90;;;;;;5071931;28;20028;-73
2022/10/20 07:11:11;;;;;;;5.55;2.65;;;26.20;99.90;;;;;;5071667;28;20028;-72
2022/10/20 07:13:37;;;;;;;7.57;2.67;;;26.20;99.90;;;;;;5072451;28;20520;-73
2022/10/20 07:16:05;;;;;;;6.47;2.80;;;26.30;99.90;;;;;;5070559;28;20127;-72
2022/10/20 07:18:33;;;;;;;6.82;2.53;;;26.20;99.90;;;;;;5072040;28;20017;-73
2022/10/20 07:21:02;;;;;;;8.38;2.70;;;26.50;99.90;;;;;;5071421;28;20059;-73
2022/10/20 07:23:30;;;;;;;6.65;2.80;;;26.20;99.90;;;;;;5071674;28;20063;-74
2022/10/20 07:26:09;;;;;;;6.63;2.95;;;25.90;99.90;;;;;;5071680;28;20040;-73
2022/10/20 07:28:36;;;;;;;8.68;3.00;;;25.60;99.90;;;;;;5070715;28;20101;-72
2022/10/20 07:31:04;;;;;;;5.97;2.78;;;25.20;99.90;;;;;;5071502;28;20035;-78
2022/10/20 07:33:31;;;;;;;4.57;2.88;;;24.70;99.90;;;;;;5071720;28;20025;-80
2022/10/20 07:35:57;;;;;;;6.68;3.22;;;24.00;99.90;;;;;;5069761;28;20039;-79
2022/10/20 07:38:25;;;;;;;6.30;3.20;;;23.60;99.90;;;;;;5071437;28;20019;-80
2022/10/20 07:41:01;;;;;;;9.30;3.78;;;23.60;99.90;;;;;;5071413;28;20100;-80
2022/10/20 07:43:46;;;;;;;7.55;3.50;;;23.60;99.90;;;;;;5072037;28;20025;-82
2022/10/20 07:46:14;;;;;;;6.55;3.58;;;23.80;99.90;;;;;;5071594;28;20511;-82
2022/10/20 07:48:40;;;;;;;9.55;4.05;;;23.90;99.90;;;;;;5071439;28;20025;-78
2022/10/20 07:51:23;;;;;;;22.02;4.75;;;24.20;99.90;;;;;;5071315;28;20043;-81
2022/10/20 07:53:51;;;;;;;9.13;4.20;;;24.40;99.90;;;;;;5070130;28;20032;-80
2022/10/20 07:56:17;;;;;;;9.65;4.78;;;24.70;99.90;;;;;;5070859;28;20539;-82
2022/10/20 07:58:43;;;;;;;9.85;3.85;;;24.80;99.90;;;;;;5071402;28;20553;-82
2022/10/20 08:01:10;;;;;;;8.52;3.92;;;24.80;99.90;;;;;;5070626;28;20090;-82
2022/10/20 08:03:36;;;;;;;;;;;24.90;99.90;;;;;;5071838;28;20104;-83
2022/10/20 08:06:02;;;;;;;;;;;24.80;99.90;;;;;;5073785;28;20340;-81
2022/10/20 08:08:29;;;;;;;9.48;4.28;;;24.90;99.90;;;;;;5074744;28;19991;-79
2022/10/20 08:10:56;;;;;;;7.30;3.20;;;25.10;99.90;;;;;;5074934;28;20032;-79
2022/10/20 08:13:27;;;;;;;5.57;2.92;;;24.90;99.90;;;;;;5074968;28;20099;-81
2022/10/20 08:15:54;;;;;;;8.48;3.10;;;24.50;99.90;;;;;;5074884;28;20028;-81
2022/10/20 08:18:20;;;;;;;5.10;2.80;;;24.30;99.90;;;;;;5075006;28;20452;-81
2022/10/20 08:20:46;;;;;;;5.72;2.88;;;24.20;99.90;;;;;;5074711;28;20549;-80
2022/10/20 08:23:13;;;;;;;4.97;2.50;;;23.90;99.90;;;;;;5075323;28;20020;-82
2022/10/20 08:25:40;;;;;;;8.27;2.90;;;24.00;99.90;;;;;;5073547;28;20115;-82
2022/10/20 08:28:07;;;;;;;5.28;2.58;;;24.00;99.90;;;;;;5074667;28;20024;-81
2022/10/20 08:30:34;;;;;;;5.25;2.67;;;24.30;99.90;;;;;;5073389;28;20036;-82
2022/10/20 08:33:02;;;;;;;6.25;2.90;;;24.00;99.90;;;;;;5075194;28;20025;-81
2022/10/20 08:35:28;;;;;;;5.28;2.78;;;24.30;99.90;;;;;;5075157;28;20473;-81
2022/10/20 08:37:54;;;;;;;7.53;2.47;;;24.50;99.90;;;;;;5074924;28;20488;-82
2022/10/20 08:40:24;;;;;;;5.30;2.67;;;24.60;99.90;;;;;;5075300;28;20024;-81
2022/10/20 08:42:50;;;;;;;5.38;2.65;;;24.60;99.90;;;;;;5074496;28;20116;-82
2022/10/20 08:45:21;;;;;;;6.38;2.40;;;24.60;99.90;;;;;;5074359;28;20016;-82
2022/10/20 08:47:50;;;;;;;3.90;1.95;;;24.60;99.90;;;;;;5072987;28;20032;-82
2022/10/20 08:50:20;;;;;;;5.80;2.42;;;24.60;99.90;;;;;;5074307;28;20081;-82
2022/10/20 08:52:50;;;;;;;5.38;2.63;;;24.30;99.90;;;;;;5073840;28;20161;-82
2022/10/20 08:55:31;;;;;;;5.88;2.45;;;23.80;99.90;;;;;;5072741;28;20158;-81
2022/10/20 08:58:15;;;;;;;3.97;2.17;;;24.10;99.90;;;;;;5074185;28;20031;-80
2022/10/20 09:00:43;;;;;;;7.95;2.53;;;24.20;99.90;;;;;;5073786;28;20103;-81
2022/10/20 09:03:15;;;;;;;5.30;2.55;;;24.30;99.90;;;;;;5073675;28;20087;-79
2022/10/20 09:05:45;;;;;;;4.15;2.28;;;24.30;99.90;;;;;;5074239;28;20409;-81
2022/10/20 09:08:11;;;;;;;4.07;2.45;;;24.60;99.90;;;;;;5073560;28;20060;-81
2022/10/20 09:10:49;;;;;;;5.70;2.40;;;24.80;99.90;;;;;;5073472;28;20103;-80
2022/10/20 09:13:28;;;;;;;4.25;2.15;;;25.00;99.90;;;;;;5073891;28;20098;-80
2022/10/20 09:16:06;;;;;;;3.50;2.17;;;25.30;99.90;;;;;;5073591;28;20047;-79
2022/10/20 09:18:33;;;;;;;7.70;2.20;;;25.50;99.90;;;;;;5073676;28;20050;-81
2022/10/20 09:21:12;;;;;;;7.97;3.50;;;25.60;99.90;;;;;;5073199;28;20052;-80
2022/10/20 09:23:44;;;;;;;11.15;3.67;;;25.70;99.90;;;;;;5073232;28;20103;-81
2022/10/20 09:26:17;;;;;;;8.50;3.42;;;25.70;99.90;;;;;;5073291;28;20055;-81
2022/10/20 09:28:48;;;;;;;5.40;3.00;;;25.80;99.90;;;;;;5072469;28;20368;-79
2022/10/20 09:31:34;;;;;;;8.52;3.63;;;26.00;99.90;;;;;;5074140;28;20028;-80
2022/10/20 09:34:01;;;;;;;9.15;3.95;;;26.10;99.90;;;;;;5071085;28;20465;-80
2022/10/20 09:36:32;;;;;;;8.20;5.10;;;26.20;99.90;;;;;;5070539;28;20036;-80
2022/10/20 09:38:59;;;;;;;10.75;5.38;;;26.30;99.90;;;;;;5073405;28;20456;-80
2022/10/20 09:41:30;;;;;;;10.13;4.88;;;26.40;99.90;;;;;;5073733;28;20036;-80
2022/10/20 09:44:14;;;;;;;10.07;4.97;;;26.30;99.90;;;;;;5055630;28;20358;-81
2022/10/20 09:46:50;;;;;;;10.73;4.38;;;26.40;99.90;;;;;;5072758;28;20502;-81
2022/10/20 09:49:36;;;;;;;;;;;26.40;99.90;;;;;;5071937;28;20012;-83
2022/10/20 09:52:13;;;;;;;9.90;4.22;;;26.40;99.90;;;;;;5060601;28;19931;-82
2022/10/20 09:54:39;;;;;;;11.02;3.83;;;26.30;99.90;;;;;;5053895;28;20117;-80
2022/10/20 09:57:14;;;;;;;9.98;4.03;;;26.30;99.90;;;;;;5054304;28;20029;-82
2022/10/20 09:59:45;;;;;;;26.50;5.63;;;26.30;99.90;;;;;;5037126;28;20044;-83
2022/10/20 10:02:15;;;;;;;10.43;4.00;;;26.20;99.90;;;;;;5069362;28;20068;-82
2022/10/20 10:04:46;;;;;;;10.48;3.70;;;26.10;99.90;;;;;;5054333;28;20028;-82
2022/10/20 10:07:21;;;;;;;6.55;3.00;;;26.10;99.90;;;;;;5053657;28;20025;-81
2022/10/20 10:10:03;;;;;;;10.93;3.60;;;26.00;99.90;;;;;;5053034;28;20116;-82
2022/10/20 10:12:31;;;;;;;7.85;3.60;;;26.00;99.90;;;;;;5052517;28;20362;-81
2022/10/20 10:15:07;;;;;;;7.43;3.45;;;26.20;99.90;;;;;;5052148;28;20076;-81
2022/10/20 10:17:39;;;;;;;6.93;3.58;;;26.30;99.90;;;;;;5052766;28;20068;-80
2022/10/20 10:20:35;;;;;;;7.47;3.28;;;26.10;99.90;;;;;;5051997;28;20029;-81
2022/10/20 10:23:26;;;;;;;6.55;3.20;;;26.30;99.90;;;;;;5032527;28;20052;-81
2022/10/20 10:25:53;;;;;;;4.85;3.08;;;26.50;99.90;;;;;;5030501;28;20026;-82
2022/10/20 10:28:56;;;;;;;6.85;2.92;;;26.50;99.90;;;;;;5031058;28;20402;-82
2022/10/20 10:31:24;;;;;;;6.03;3.60;;;26.50;99.90;;;;;;5030950;28;20029;-82
2022/10/20 10:34:01;;;;;;;8.73;3.40;;;26.70;99.90;;;;;;5030864;28;20029;-83
2022/10/20 10:36:33;;;;;;;7.22;2.85;;;26.80;99.90;;;;;;5033197;28;20030;-81
2022/10/20 10:39:01;;;;;;;9.13;3.38;;;26.80;99.90;;;;;;5032393;28;20030;-82
2022/10/20 10:41:54;;;;;;;17.45;4.40;;;26.50;99.90;;;;;;5031126;28;20094;-81
2022/10/20 10:44:43;;;;;;;6.40;3.88;;;26.40;99.90;;;;;;5032717;28;20035;-81
2022/10/20 10:47:30;;;;;;;7.22;3.33;;;26.30;99.90;;;;;;4991311;28;20034;-82
2022/10/20 10:50:30;;;;;;;7.60;4.10;;;26.50;99.90;;;;;;5031446;28;20026;-82
2022/10/20 10:53:08;;;;;;;9.65;4.53;;;26.60;99.90;;;;;;5032649;28;20076;-81
2022/10/20 10:56:02;;;;;;;6.38;3.85;;;26.40;99.90;;;;;;5031124;28;20063;-82
2022/10/20 10:58:44;;;;;;;8.75;4.00;;;26.40;99.90;;;;;;5032420;28;20029;-81
2022/10/20 11:01:25;;;;;;;7.35;3.85;;;26.50;99.90;;;;;;5030548;28;20033;-80
2022/10/20 11:04:42;;;;;;;7.68;3.85;;;26.60;99.90;;;;;;5029960;28;20037;-81
2022/10/20 11:07:18;;;;;;;6.03;4.03;;;26.60;99.90;;;;;;5032108;28;20060;-80
2022/10/20 11:10:17;;;;;;;8.07;4.03;;;26.80;99.90;;;;;;5032498;28;20029;-81
2022/10/20 11:13:08;;;;;;;7.03;3.88;;;26.70;99.90;;;;;;5032475;28;20064;-83
2022/10/20 11:15:46;;;;;;;8.70;3.28;;;26.60;99.90;;;;;;5032509;28;20037;-82
2022/10/20 11:18:24;;;;;;;8.38;3.70;;;26.60;99.90;;;;;;5032349;28;20462;-81
2022/10/20 11:21:00;;;;;;;6.63;3.58;;;26.70;99.90;;;;;;5034885;28;20445;-81
2022/10/20 11:23:35;;;;;;;9.07;3.60;;;26.70;99.90;;;;;;5052431;28;20025;-81
2022/10/20 11:26:16;;;;;;;7.10;3.58;;;26.60;99.90;;;;;;5050841;28;20066;-82
2022/10/20 11:28:48;;;;;;;8.88;3.78;;;26.50;99.90;;;;;;5051658;28;20055;-78
2022/10/20 11:31:20;;;;;;;8.73;3.80;;;26.40;99.90;;;;;;5049365;28;20116;-82
2022/10/20 11:33:50;;;;;;;8.63;3.63;;;26.50;99.90;;;;;;5051583;28;20108;-82
2022/10/20 11:36:37;;;;;;;8.40;4.13;;;26.30;99.90;;;;;;5052271;28;20413;-83
2022/10/20 11:39:05;;;;;;;8.88;3.90;;;26.30;99.90;;;;;;5056231;28;20108;-81
2022/10/20 11:41:39;;;;;;;7.32;3.78;;;26.30;99.90;;;;;;5054595;28;20461;-83
2022/10/20 11:44:39;;;;;;;5.40;3.70;;;26.30;99.90;;;;;;5056328;28;20029;-83
2022/10/20 11:47:21;;;;;;;5.30;3.90;;;26.30;99.90;;;;;;5056003;28;20582;-74
2022/10/20 11:49:47;;;;;;;9.75;3.45;;;26.20;99.90;;;;;;5056204;28;20458;-79
2022/10/20 11:52:30;;;;;;;5.72;3.72;;;26.40;99.90;;;;;;5087656;28;20027;-80
2022/10/20 11:55:17;;;;;;;8.40;4.00;;;26.40;99.90;;;;;;5055703;28;20033;-80
2022/10/20 11:58:00;;;;;;;;;;;26.50;99.90;;;;;;5056460;28;20032;-83
2022/10/20 12:00:40;;;;;;;6.20;3.70;;;26.30;99.90;;;;;;5055596;28;20372;-80
2022/10/20 12:03:25;;;;;;;6.35;3.78;;;26.30;99.90;;;;;;5055913;28;20040;-81
2022/10/20 12:06:18;;;;;;;10.25;3.60;;;26.50;99.90;;;;;;5055663;28;20052;-81
2022/10/20 12:09:21;;;;;;;6.63;3.65;;;26.50;99.90;;;;;;5055843;28;20025;-81
2022/10/20 12:12:05;;;;;;;7.53;3.83;;;26.80;99.90;;;;;;5055487;28;20040;-80
2022/10/20 12:14:43;;;;;;;7.82;3.40;;;26.50;99.90;;;;;;5055804;28;20346;-80
2022/10/20 12:17:26;;;;;;;8.23;3.60;;;26.50;99.90;;;;;;5054946;28;20051;-81
2022/10/20 12:20:19;;;;;;;9.40;4.50;;;26.40;99.90;;;;;;5055073;28;20061;-80
2022/10/20 12:22:49;;;;;;;6.03;3.88;;;26.40;99.90;;;;;;5055650;28;20056;-82
2022/10/20 12:25:18;;;;;;;7.45;3.80;;;26.50;99.90;;;;;;5054286;28;20552;-82
2022/10/20 12:27:44;;;;;;;6.78;3.80;;;26.60;99.90;;;;;;5056161;28;20033;-82
2022/10/20 12:30:36;;;;;;;5.30;3.88;;;26.70;99.90;;;;;;5054473;28;20037;-81
2022/10/20 12:33:18;;;;;;;7.63;3.90;;;26.80;99.90;;;;;;5054293;28;20029;-82
2022/10/20 12:36:16;;;;;;;8.23;4.00;;;26.60;99.90;;;;;;5056243;28;20104;-82
2022/10/20 12:38:44;;;;;;;7.03;3.90;;;26.50;99.90;;;;;;5054407;28;20127;-80
2022/10/20 12:41:32;;;;;;;7.03;3.90;;;26.40;99.90;;;;;;5055337;28;20115;-81
2022/10/20 12:44:14;;;;;;;6.40;3.75;;;26.50;99.90;;;;;;5054805;28;20059;-81
2022/10/20 12:46:51;;;;;;;8.23;5.32;;;26.50;99.90;;;;;;5055874;28;20040;-80
2022/10/20 12:49:30;;;;;;;6.28;3.72;;;26.50;99.90;;;;;;5086773;28;20032;-80
2022/10/20 12:51:58;;;;;;;9.02;4.28;;;26.50;99.90;;;;;;5054823;28;20086;-81
2022/10/20 12:54:37;;;;;;;9.18;3.80;;;26.60;99.90;;;;;;5055171;28;20025;-79
2022/10/20 12:57:44;;;;;;;6.85;4.38;;;26.60;99.90;;;;;;5054631;28;20052;-79
2022/10/20 13:00:19;;;;;;;7.20;4.22;;;26.40;99.90;;;;;;5055199;28;20053;-81
2022/10/20 13:02:59;;;;;;;9.02;4.50;;;26.60;99.90;;;;;;5054787;28;20037;-81
2022/10/20 13:05:44;;;;;;;8.15;4.55;;;26.70;99.90;;;;;;5053141;28;20040;-73
2022/10/20 13:08:29;;;;;;;;;;;26.70;99.90;;;;;;5064491;28;20032;-79
2022/10/20 13:10:56;;;;;;;7.90;5.10;;;26.60;99.90;;;;;;5073875;28;20379;-80
2022/10/20 13:13:25;;;;;;;7.93;4.75;;;26.50;99.90;;;;;;5072771;28;20025;-80
2022/10/20 13:15:55;;;;;;;9.43;4.55;;;26.60;99.90;;;;;;5075257;28;20422;-80
2022/10/20 13:18:31;;;;;;;9.73;5.50;;;26.40;99.90;;;;;;5075487;28;20029;-81